createdAt,value
2018-03-01T00:02:07.664Z,-9.42
2018-03-01T00:04:39.397Z,-9.43
2018-03-01T00:07:10.989Z,-9.27
2018-03-01T00:09:42.846Z,-9.36
2018-03-01T00:12:14.132Z,-9.34
2018-03-01T00:14:45.689Z,-9.27
2018-03-01T00:17:17.773Z,-9.33
2018-03-01T00:19:49.068Z,-9.42
2018-03-01T00:22:29.308Z,-9.41
2018-03-01T00:25:01.469Z,-9.69
2018-03-01T00:27:32.942Z,-9.55
2018-03-01T00:30:04.383Z,-9.55
2018-03-01T00:32:36.253Z,-9.53
2018-03-01T00:35:08.048Z,-9.51
2018-03-01T00:37:39.349Z,-9.47
2018-03-01T00:40:11.396Z,-9.55
2018-03-01T00:42:42.686Z,-9.52
2018-03-01T00:45:14.366Z,-9.52
2018-03-01T00:47:46.897Z,-9.52
2018-03-01T00:50:18.880Z,-9.58
2018-03-01T00:52:50.917Z,-9.58
2018-03-01T00:55:22.777Z,-9.53
2018-03-01T00:57:54.624Z,-9.61
2018-03-01T01:00:26.006Z,-9.61
2018-03-01T01:02:57.905Z,-9.56
2018-03-01T01:05:29.392Z,-9.57
2018-03-01T01:08:03.398Z,-9.72
2018-03-01T01:10:34.785Z,-9.65
2018-03-01T01:13:06.149Z,-9.70
2018-03-01T01:15:37.828Z,-9.57
2018-03-01T01:18:09.689Z,-9.66
2018-03-01T01:20:41.728Z,-9.68
2018-03-01T01:23:13.088Z,-9.64
2018-03-01T01:25:44.607Z,-9.64
2018-03-01T01:28:16.157Z,-9.70
2018-03-01T01:30:47.568Z,-9.73
2018-03-01T01:33:19.127Z,-9.87
2018-03-01T01:35:50.811Z,-9.78
2018-03-01T01:38:22.393Z,-9.84
2018-03-01T01:40:53.703Z,-9.75
2018-03-01T01:43:26.088Z,-9.90
2018-03-01T01:45:57.404Z,-9.76
2018-03-01T01:48:29.561Z,-9.82
2018-03-01T01:51:05.982Z,-9.88
2018-03-01T01:53:37.828Z,-9.92
2018-03-01T01:56:09.550Z,-9.82
2018-03-01T01:58:41.568Z,-9.78
2018-03-01T02:01:14.030Z,-10.00
2018-03-01T02:03:45.390Z,-9.99
2018-03-01T02:06:17.329Z,-9.93
2018-03-01T02:08:49.064Z,-9.96
2018-03-01T02:11:20.808Z,-9.95
2018-03-01T02:13:52.701Z,-9.93
2018-03-01T02:16:24.422Z,-10.06
2018-03-01T02:18:56.189Z,-10.05
2018-03-01T02:21:28.228Z,-10.09
2018-03-01T02:24:00.985Z,-10.10
2018-03-01T02:26:33.093Z,-9.97
2018-03-01T02:29:05.468Z,-10.16
2018-03-01T02:31:37.253Z,-10.03
2018-03-01T02:34:09.153Z,-10.02
2018-03-01T02:36:42.020Z,-9.96
2018-03-01T02:39:13.532Z,-10.12
2018-03-01T02:41:44.734Z,-10.17
2018-03-01T02:46:46.529Z,-10.18
2018-03-01T02:49:18.077Z,-10.31
2018-03-01T02:51:50.300Z,-10.26
2018-03-01T02:54:21.861Z,-10.21
2018-03-01T02:56:53.755Z,-10.39
2018-03-01T02:59:25.497Z,-10.35
2018-03-01T03:01:56.824Z,-10.08
2018-03-01T03:04:28.020Z,-10.61
2018-03-01T03:07:00.124Z,-10.38
2018-03-01T03:09:32.333Z,-10.60
2018-03-01T03:12:04.036Z,-10.30
2018-03-01T03:14:35.646Z,-10.43
2018-03-01T03:17:07.037Z,-10.41
2018-03-01T03:19:38.660Z,-10.36
2018-03-01T03:22:10.144Z,-10.28
2018-03-01T03:24:42.121Z,-10.32
2018-03-01T03:27:13.168Z,-9.95
2018-03-01T03:29:45.106Z,-10.17
2018-03-01T03:32:17.071Z,-10.35
2018-03-01T03:34:49.229Z,-10.29
2018-03-01T03:37:20.336Z,-10.19
2018-03-01T03:39:52.225Z,-10.31
2018-03-01T03:42:23.910Z,-10.45
2018-03-01T03:44:55.520Z,-10.23
2018-03-01T03:47:27.600Z,-10.30
2018-03-01T03:50:01.261Z,-10.34
2018-03-01T03:52:32.591Z,-10.39
2018-03-01T03:55:05.371Z,-10.28
2018-03-01T03:57:37.272Z,-10.21
2018-03-01T04:00:08.721Z,-10.43
2018-03-01T04:02:40.452Z,-10.34
2018-03-01T04:05:11.644Z,-10.41
2018-03-01T04:07:44.486Z,-10.19
2018-03-01T04:10:15.902Z,-10.60
2018-03-01T04:12:47.245Z,-10.31
2018-03-01T04:15:18.956Z,-10.32
2018-03-01T04:17:50.606Z,-10.31
2018-03-01T04:20:22.712Z,-10.48
2018-03-01T04:22:53.916Z,-10.53
2018-03-01T04:25:25.722Z,-10.31
2018-03-01T04:27:57.424Z,-10.35
2018-03-01T04:30:29.604Z,-10.47
2018-03-01T04:33:02.462Z,-10.47
2018-03-01T04:35:33.610Z,-10.54
2018-03-01T04:38:05.413Z,-10.45
2018-03-01T04:40:37.616Z,-10.42
2018-03-01T04:43:08.739Z,-10.30
2018-03-01T04:45:40.329Z,-10.38
2018-03-01T04:48:12.628Z,-10.53
2018-03-01T04:50:44.385Z,-10.51
2018-03-01T04:53:16.598Z,-10.52
2018-03-01T04:55:48.710Z,-10.53
2018-03-01T04:58:20.709Z,-10.51
2018-03-01T05:03:29.852Z,-10.51
2018-03-01T05:06:01.437Z,-10.44
2018-03-01T05:08:33.109Z,-10.54
2018-03-01T05:11:07.916Z,-10.46
2018-03-01T05:13:39.367Z,-10.40
2018-03-01T05:16:10.936Z,-10.59
2018-03-01T05:18:43.504Z,-10.35
2018-03-01T05:21:14.683Z,-10.32
2018-03-01T05:23:46.881Z,-10.46
2018-03-01T05:26:19.166Z,-10.40
2018-03-01T05:28:51.060Z,-10.61
2018-03-01T05:31:23.039Z,-10.55
2018-03-01T05:33:54.437Z,-10.54
2018-03-01T05:36:25.559Z,-10.73
2018-03-01T05:38:57.105Z,-10.69
2018-03-01T05:41:33.555Z,-10.76
2018-03-01T05:44:06.852Z,-10.95
2018-03-01T05:46:37.930Z,-10.80
2018-03-01T05:49:09.397Z,-10.88
2018-03-01T05:51:42.466Z,-10.86
2018-03-01T05:54:14.158Z,-11.07
2018-03-01T05:56:46.189Z,-10.88
2018-03-01T05:59:17.961Z,-11.05
2018-03-01T06:01:49.136Z,-10.90
2018-03-01T06:04:20.728Z,-10.90
2018-03-01T06:06:52.317Z,-10.96
2018-03-01T06:09:23.927Z,-11.04
2018-03-01T06:11:55.170Z,-10.83
2018-03-01T06:14:26.864Z,-11.03
2018-03-01T06:16:59.189Z,-10.75
2018-03-01T06:19:30.401Z,-10.81
2018-03-01T06:22:03.893Z,-10.89
2018-03-01T06:24:35.765Z,-10.88
2018-03-01T06:27:06.922Z,-10.94
2018-03-01T06:29:38.405Z,-10.77
2018-03-01T06:32:09.589Z,-10.93
2018-03-01T06:34:41.190Z,-11.17
2018-03-01T06:37:12.274Z,-11.19
2018-03-01T06:39:43.484Z,-10.88
2018-03-01T06:42:15.062Z,-10.79
2018-03-01T06:44:47.343Z,-10.76
2018-03-01T06:47:19.463Z,-10.85
2018-03-01T06:49:50.935Z,-10.73
2018-03-01T06:52:21.989Z,-10.66
2018-03-01T06:54:54.045Z,-10.66
2018-03-01T06:57:25.211Z,-10.72
2018-03-01T06:59:56.369Z,-10.55
2018-03-01T07:02:27.737Z,-10.53
2018-03-01T07:04:58.929Z,-10.59
2018-03-01T07:07:30.005Z,-10.57
2018-03-01T07:10:01.566Z,-10.76
2018-03-01T07:12:32.642Z,-10.35
2018-03-01T07:15:04.774Z,-10.49
2018-03-01T07:17:35.869Z,-10.34
2018-03-01T07:20:07.690Z,-10.38
2018-03-01T07:22:38.783Z,-10.27
2018-03-01T07:25:09.854Z,-10.21
2018-03-01T07:27:41.229Z,-10.13
2018-03-01T07:30:12.720Z,-10.09
2018-03-01T07:35:19.336Z,-10.03
2018-03-01T07:37:50.565Z,-9.75
2018-03-01T07:40:21.698Z,-9.52
2018-03-01T07:42:53.170Z,-9.56
2018-03-01T07:45:25.070Z,-9.51
2018-03-01T07:47:57.395Z,-9.39
2018-03-01T07:50:29.222Z,-9.50
2018-03-01T07:53:00.280Z,-9.56
2018-03-01T07:55:31.384Z,-9.27
2018-03-01T07:58:02.825Z,-9.27
2018-03-01T08:00:37.023Z,-9.31
2018-03-01T08:03:08.109Z,-9.21
2018-03-01T08:05:39.723Z,-9.20
2018-03-01T08:08:10.840Z,-9.17
2018-03-01T08:10:42.221Z,-9.03
2018-03-01T08:13:13.357Z,-8.97
2018-03-01T08:15:44.457Z,-8.97
2018-03-01T08:18:15.850Z,-8.81
2018-03-01T08:20:46.954Z,-8.77
2018-03-01T08:23:18.903Z,-8.60
2018-03-01T08:25:50.784Z,-8.41
2018-03-01T08:28:21.897Z,-8.30
2018-03-01T08:30:53.348Z,-8.19
2018-03-01T08:33:24.437Z,-8.44
2018-03-01T08:35:55.612Z,-8.16
2018-03-01T08:38:27.971Z,-8.00
2018-03-01T08:40:59.665Z,-7.81
2018-03-01T08:43:30.802Z,-7.71
2018-03-01T08:46:03.053Z,-7.72
2018-03-01T08:48:34.164Z,-7.57
2018-03-01T08:51:05.656Z,-7.70
2018-03-01T08:53:37.142Z,-7.93
2018-03-01T08:56:08.200Z,-7.65
2018-03-01T08:58:39.590Z,-7.44
2018-03-01T09:01:10.713Z,-7.02
2018-03-01T09:03:41.841Z,-7.18
2018-03-01T09:06:14.825Z,-7.27
2018-03-01T09:08:45.899Z,-7.16
2018-03-01T09:11:17.065Z,-7.06
2018-03-01T09:13:48.768Z,-6.94
2018-03-01T09:16:19.861Z,-6.84
2018-03-01T09:18:51.195Z,-6.74
2018-03-01T09:21:22.277Z,-6.61
2018-03-01T09:23:53.309Z,-6.24
2018-03-01T09:26:24.651Z,-6.59
2018-03-01T09:28:55.829Z,-6.25
2018-03-01T09:31:26.973Z,-6.10
2018-03-01T09:33:58.459Z,-6.00
2018-03-01T09:36:29.656Z,-6.15
2018-03-01T09:39:00.739Z,-5.94
2018-03-01T09:41:32.966Z,-6.07
2018-03-01T09:44:04.277Z,-5.81
2018-03-01T09:46:35.269Z,-5.98
2018-03-01T09:49:07.070Z,-5.63
2018-03-01T09:51:38.147Z,-5.89
2018-03-01T09:54:09.291Z,-5.91
2018-03-01T09:56:40.694Z,-5.80
2018-03-01T09:59:11.789Z,-5.98
2018-03-01T10:01:43.585Z,-5.74
2018-03-01T10:04:15.305Z,-5.27
2018-03-01T10:06:47.098Z,-5.33
2018-03-01T10:09:19.013Z,-5.11
2018-03-01T10:11:52.608Z,-5.04
2018-03-01T10:14:24.277Z,-5.66
2018-03-01T10:16:56.169Z,-5.26
2018-03-01T10:19:27.601Z,-5.40
2018-03-01T10:21:58.800Z,-5.68
2018-03-01T10:24:30.752Z,-5.14
2018-03-01T10:27:02.622Z,-4.83
2018-03-01T10:29:35.765Z,-4.99
2018-03-01T10:32:06.957Z,-4.82
2018-03-01T10:34:38.082Z,-4.93
2018-03-01T10:37:09.498Z,-4.78
2018-03-01T10:39:40.768Z,-4.85
2018-03-01T10:42:12.593Z,-4.74
2018-03-01T10:44:44.885Z,-4.69
2018-03-01T10:47:16.580Z,-4.51
2018-03-01T10:49:48.100Z,-4.52
2018-03-01T10:52:19.363Z,-4.73
2018-03-01T10:54:51.290Z,-4.66
2018-03-01T10:57:22.593Z,-4.52
2018-03-01T10:59:53.762Z,-4.29
2018-03-01T11:02:25.157Z,-4.15
2018-03-01T11:04:57.171Z,-4.13
2018-03-01T11:07:29.361Z,-4.04
2018-03-01T11:10:01.679Z,-4.10
2018-03-01T11:12:33.321Z,-4.13
2018-03-01T11:15:04.984Z,-4.14
2018-03-01T11:17:36.854Z,-3.86
2018-03-01T11:20:08.214Z,-3.89
2018-03-01T11:22:39.857Z,-3.84
2018-03-01T11:25:11.528Z,-3.81
2018-03-01T11:27:42.705Z,-3.62
2018-03-01T11:30:14.802Z,-4.17
2018-03-01T11:32:46.398Z,-3.92
2018-03-01T11:35:17.505Z,-3.53
2018-03-01T11:37:49.076Z,-3.53
2018-03-01T11:40:20.253Z,-3.48
2018-03-01T11:42:51.352Z,-3.33
2018-03-01T11:45:22.850Z,-3.55
2018-03-01T11:47:53.923Z,-3.53
2018-03-01T11:50:25.252Z,-3.09
2018-03-01T11:52:56.425Z,-3.15
2018-03-01T11:55:27.490Z,-3.18
2018-03-01T11:57:58.976Z,-3.10
2018-03-01T12:00:30.105Z,-3.17
2018-03-01T12:03:01.165Z,-3.48
2018-03-01T12:05:32.917Z,-3.46
2018-03-01T12:08:03.747Z,-2.97
2018-03-01T12:10:36.399Z,-3.00
2018-03-01T12:13:07.541Z,-3.05
2018-03-01T12:15:38.405Z,-3.00
2018-03-01T12:18:09.741Z,-2.84
2018-03-01T12:20:40.551Z,-2.99
2018-03-01T12:23:11.610Z,-2.93
2018-03-01T12:25:42.793Z,-2.78
2018-03-01T12:28:13.684Z,-2.75
2018-03-01T12:33:26.233Z,-2.46
2018-03-01T12:35:57.063Z,-2.50
2018-03-01T12:38:28.186Z,-2.54
2018-03-01T12:40:58.985Z,-3.01
2018-03-01T12:43:29.759Z,-2.79
2018-03-01T12:46:00.882Z,-2.67
2018-03-01T12:48:31.685Z,-2.57
2018-03-01T12:51:02.878Z,-2.53
2018-03-01T12:53:34.649Z,-2.48
2018-03-01T12:56:05.531Z,-2.59
2018-03-01T12:58:36.525Z,-2.86
2018-03-01T13:01:07.717Z,-3.31
2018-03-01T13:03:38.873Z,-3.11
2018-03-01T13:06:10.167Z,-2.79
2018-03-01T13:08:41.172Z,-2.59
2018-03-01T13:11:12.257Z,-2.61
2018-03-01T13:13:43.661Z,-2.61
2018-03-01T13:16:14.650Z,-2.64
2018-03-01T13:18:45.585Z,-2.69
2018-03-01T13:21:20.036Z,-2.61
2018-03-01T13:23:51.282Z,-2.54
2018-03-01T13:26:22.629Z,-2.53
2018-03-01T13:28:53.694Z,-2.64
2018-03-01T13:31:24.745Z,-2.58
2018-03-01T13:33:56.377Z,-2.64
2018-03-01T13:36:28.765Z,-3.05
2018-03-01T13:38:59.781Z,-2.75
2018-03-01T13:41:31.129Z,-2.77
2018-03-01T13:44:02.598Z,-2.84
2018-03-01T13:46:33.949Z,-2.81
2018-03-01T13:49:05.405Z,-2.77
2018-03-01T13:51:36.304Z,-2.88
2018-03-01T13:54:07.680Z,-2.84
2018-03-01T13:56:38.894Z,-2.92
2018-03-01T13:59:11.785Z,-2.73
2018-03-01T14:01:43.501Z,-2.74
2018-03-01T14:04:14.382Z,-2.75
2018-03-01T14:06:45.435Z,-2.75
2018-03-01T14:09:17.365Z,-2.87
2018-03-01T14:11:48.446Z,-2.68
2018-03-01T14:14:19.509Z,-2.57
2018-03-01T14:16:50.643Z,-2.66
2018-03-01T14:19:22.247Z,-2.74
2018-03-01T14:21:54.624Z,-2.82
2018-03-01T14:24:25.897Z,-2.78
2018-03-01T14:26:57.687Z,-2.85
2018-03-01T14:29:28.988Z,-2.82
2018-03-01T14:32:00.143Z,-2.84
2018-03-01T14:34:31.336Z,-2.73
2018-03-01T14:37:03.100Z,-2.76
2018-03-01T14:39:34.005Z,-2.90
2018-03-01T14:42:04.864Z,-2.79
2018-03-01T14:44:35.765Z,-2.89
2018-03-01T14:47:07.824Z,-3.00
2018-03-01T14:49:38.908Z,-2.96
2018-03-01T14:52:09.815Z,-3.00
2018-03-01T14:54:41.146Z,-2.95
2018-03-01T14:57:12.359Z,-2.96
2018-03-01T14:59:43.265Z,-2.99
2018-03-01T15:02:14.085Z,-2.96
2018-03-01T15:04:44.899Z,-2.94
2018-03-01T15:07:17.312Z,-2.94
2018-03-01T15:09:50.098Z,-3.02
2018-03-01T15:12:21.530Z,-3.01
2018-03-01T15:14:52.400Z,-3.13
2018-03-01T15:17:23.549Z,-3.11
2018-03-01T15:19:58.861Z,-3.06
2018-03-01T15:22:29.909Z,-3.09
2018-03-01T15:25:01.874Z,-3.01
2018-03-01T15:27:33.814Z,-2.98
2018-03-01T15:30:04.901Z,-2.98
2018-03-01T15:32:36.552Z,-3.00
2018-03-01T15:35:07.506Z,-3.13
2018-03-01T15:37:38.565Z,-3.03
2018-03-01T15:40:09.688Z,-3.31
2018-03-01T15:42:41.012Z,-3.17
2018-03-01T15:45:13.069Z,-3.27
2018-03-01T15:47:44.401Z,-3.33
2018-03-01T15:50:15.206Z,-3.25
2018-03-01T15:52:46.293Z,-3.24
2018-03-01T15:55:18.606Z,-3.12
2018-03-01T15:57:49.439Z,-3.55
2018-03-01T16:00:20.565Z,-3.26
2018-03-01T16:02:51.736Z,-3.30
2018-03-01T16:05:23.419Z,-3.47
2018-03-01T16:07:55.238Z,-3.48
2018-03-01T16:10:26.441Z,-3.40
2018-03-01T16:12:58.133Z,-3.39
2018-03-01T16:15:29.190Z,-3.56
2018-03-01T16:18:00.548Z,-3.69
2018-03-01T16:20:31.673Z,-3.82
2018-03-01T16:23:03.208Z,-3.84
2018-03-01T16:25:34.541Z,-3.89
2018-03-01T16:28:05.676Z,-3.92
2018-03-01T16:30:36.776Z,-3.84
2018-03-01T16:33:08.161Z,-3.88
2018-03-01T16:35:39.314Z,-4.14
2018-03-01T16:38:10.869Z,-4.11
2018-03-01T16:40:41.897Z,-4.12
2018-03-01T16:43:12.997Z,-4.16
2018-03-01T16:45:44.821Z,-4.18
2018-03-01T16:48:15.912Z,-4.09
2018-03-01T16:50:46.966Z,-4.14
2018-03-01T16:53:21.288Z,-4.21
2018-03-01T16:55:52.341Z,-4.41
2018-03-01T16:58:23.821Z,-4.42
2018-03-01T17:00:54.918Z,-4.51
2018-03-01T17:03:26.026Z,-4.48
2018-03-01T17:05:58.232Z,-4.37
2018-03-01T17:08:29.395Z,-4.74
2018-03-01T17:11:00.484Z,-4.68
2018-03-01T17:13:32.410Z,-4.95
2018-03-01T17:16:03.557Z,-4.77
2018-03-01T17:18:35.083Z,-4.89
2018-03-01T17:21:06.161Z,-4.80
2018-03-01T17:23:37.357Z,-4.87
2018-03-01T17:26:14.657Z,-4.99
2018-03-01T17:28:45.775Z,-5.19
2018-03-01T17:31:19.071Z,-4.98
2018-03-01T17:33:50.235Z,-4.95
2018-03-01T17:36:21.458Z,-5.20
2018-03-01T17:38:52.821Z,-5.28
2018-03-01T17:41:25.154Z,-5.24
2018-03-01T17:43:56.709Z,-5.13
2018-03-01T17:46:27.813Z,-5.13
2018-03-01T17:48:58.952Z,-5.20
2018-03-01T17:51:30.597Z,-5.30
2018-03-01T17:54:01.725Z,-5.44
2018-03-01T17:56:32.863Z,-5.24
2018-03-01T17:59:04.762Z,-5.35
2018-03-01T18:01:35.926Z,-5.33
2018-03-01T18:04:09.200Z,-5.32
2018-03-01T18:06:40.345Z,-5.32
2018-03-01T18:09:11.937Z,-5.31
2018-03-01T18:11:43.033Z,-5.58
2018-03-01T18:14:14.148Z,-5.52
2018-03-01T18:16:45.548Z,-5.46
2018-03-01T18:19:16.689Z,-5.38
2018-03-01T18:21:47.777Z,-5.53
2018-03-01T18:24:20.114Z,-5.44
2018-03-01T18:26:52.362Z,-5.62
2018-03-01T18:29:25.443Z,-5.82
2018-03-01T18:31:56.541Z,-5.69
2018-03-01T18:34:27.671Z,-5.86
2018-03-01T18:37:06.167Z,-6.06
2018-03-01T18:39:37.312Z,-6.08
2018-03-01T18:42:08.708Z,-6.03
2018-03-01T18:44:39.833Z,-5.95
2018-03-01T18:47:10.955Z,-5.95
2018-03-01T18:49:42.367Z,-5.84
2018-03-01T18:52:13.551Z,-6.06
2018-03-01T18:54:44.683Z,-6.23
2018-03-01T18:57:16.171Z,-6.01
2018-03-01T18:59:51.603Z,-6.26
2018-03-01T19:02:22.696Z,-6.02
2018-03-01T19:04:54.068Z,-6.16
2018-03-01T19:07:25.299Z,-6.26
2018-03-01T19:12:33.318Z,-6.31
2018-03-01T19:15:04.445Z,-6.47
2018-03-01T19:17:35.901Z,-6.37
2018-03-01T19:20:07.182Z,-6.65
2018-03-01T19:22:38.300Z,-6.43
2018-03-01T19:25:09.739Z,-6.66
2018-03-01T19:27:40.831Z,-6.59
2018-03-01T19:30:11.971Z,-6.67
2018-03-01T19:32:43.924Z,-6.52
2018-03-01T19:35:15.011Z,-6.40
2018-03-01T19:37:46.140Z,-6.96
2018-03-01T19:40:17.568Z,-6.69
2018-03-01T19:42:49.231Z,-6.66
2018-03-01T19:45:20.260Z,-6.63
2018-03-01T19:47:51.663Z,-6.65
2018-03-01T19:50:22.787Z,-6.46
2018-03-01T19:52:54.365Z,-6.77
2018-03-01T19:55:25.736Z,-6.75
2018-03-01T19:57:57.279Z,-6.79
2018-03-01T20:00:28.402Z,-6.59
2018-03-01T20:02:59.761Z,-6.84
2018-03-01T20:05:30.928Z,-6.81
2018-03-01T20:08:02.135Z,-7.04
2018-03-01T20:10:33.674Z,-7.03
2018-03-01T20:13:04.777Z,-6.85
2018-03-01T20:15:35.855Z,-7.11
2018-03-01T20:18:08.155Z,-6.95
2018-03-01T20:20:39.256Z,-7.02
2018-03-01T20:23:10.400Z,-7.16
2018-03-01T20:25:41.846Z,-6.98
2018-03-01T20:28:13.789Z,-7.32
2018-03-01T20:30:44.921Z,-7.30
2018-03-01T20:33:19.205Z,-7.18
2018-03-01T20:35:50.402Z,-7.12
2018-03-01T20:38:21.748Z,-7.26
2018-03-01T20:40:53.317Z,-7.45
2018-03-01T20:43:24.814Z,-7.29
2018-03-01T20:45:55.937Z,-7.11
2018-03-01T20:48:27.313Z,-7.45
2018-03-01T20:51:00.393Z,-7.32
2018-03-01T20:53:31.509Z,-7.12
2018-03-01T20:56:04.640Z,-7.53
2018-03-01T20:58:35.789Z,-7.27
2018-03-01T21:01:06.949Z,-7.41
2018-03-01T21:03:38.324Z,-7.27
2018-03-01T21:06:10.365Z,-7.47
2018-03-01T21:08:42.115Z,-7.29
2018-03-01T21:11:14.090Z,-7.57
2018-03-01T21:13:45.234Z,-7.73
2018-03-01T21:16:16.978Z,-7.36
2018-03-01T21:18:48.034Z,-7.67
2018-03-01T21:21:19.218Z,-7.79
2018-03-01T21:23:51.027Z,-7.68
2018-03-01T21:26:22.239Z,-7.62
2018-03-01T21:28:53.362Z,-7.68
2018-03-01T21:31:24.711Z,-7.84
2018-03-01T21:33:56.179Z,-7.59
2018-03-01T21:36:27.395Z,-7.71
2018-03-01T21:39:00.440Z,-7.53
2018-03-01T21:41:31.629Z,-7.27
2018-03-01T21:47:01.905Z,-7.29
2018-03-01T21:49:33.077Z,-7.45
2018-03-01T21:52:04.945Z,-7.55
2018-03-01T21:54:36.049Z,-7.70
2018-03-01T21:57:07.101Z,-7.97
2018-03-01T21:59:38.653Z,-7.88
2018-03-01T22:02:10.353Z,-7.77
2018-03-01T22:04:41.729Z,-7.72
2018-03-01T22:07:13.341Z,-7.70
2018-03-01T22:09:44.524Z,-7.92
2018-03-01T22:12:16.564Z,-7.78
2018-03-01T22:14:48.261Z,-7.48
2018-03-01T22:17:19.386Z,-7.65
2018-03-01T22:19:51.076Z,-7.87
2018-03-01T22:22:22.141Z,-7.74
2018-03-01T22:24:53.613Z,-8.13
2018-03-01T22:27:24.761Z,-8.10
2018-03-01T22:29:55.930Z,-7.95
2018-03-01T22:32:27.281Z,-7.89
2018-03-01T22:34:58.374Z,-7.73
2018-03-01T22:37:29.826Z,-7.80
2018-03-01T22:40:03.966Z,-8.06
2018-03-01T22:42:36.101Z,-7.91
2018-03-01T22:45:08.260Z,-7.93
2018-03-01T22:47:39.390Z,-8.04
2018-03-01T22:50:11.801Z,-7.96
2018-03-01T22:52:43.210Z,-7.94
2018-03-01T22:55:17.210Z,-7.80
2018-03-01T22:57:48.785Z,-7.88
2018-03-01T23:00:28.782Z,-7.89
2018-03-01T23:03:00.725Z,-8.01
2018-03-01T23:05:31.845Z,-8.02
2018-03-01T23:08:04.269Z,-8.00
2018-03-01T23:10:36.184Z,-8.04
2018-03-01T23:13:07.264Z,-8.21
2018-03-01T23:15:38.673Z,-7.83
2018-03-01T23:18:11.224Z,-8.02
2018-03-01T23:20:47.502Z,-8.07
2018-03-01T23:24:42.978Z,-8.15
2018-03-01T23:27:14.156Z,-8.15
2018-03-01T23:29:45.752Z,-8.39
2018-03-01T23:32:17.416Z,-8.42
2018-03-01T23:34:48.529Z,-8.31
2018-03-01T23:37:20.077Z,-8.42
2018-03-01T23:39:51.882Z,-8.17
2018-03-01T23:42:23.747Z,-8.37
2018-03-01T23:44:55.906Z,-8.34
2018-03-01T23:47:27.581Z,-8.20
2018-03-01T23:49:58.964Z,-8.11
2018-03-01T23:52:31.090Z,-8.28
2018-03-01T23:55:03.420Z,-8.17
2018-03-01T23:57:36.396Z,-8.47
